createdAt,value
2023-04-23T00:00:15.446Z,11.06
2023-04-23T00:03:18.506Z,10.98
2023-04-23T00:06:21.302Z,11.07
2023-04-23T00:09:23.190Z,11.00
2023-04-23T00:12:25.549Z,11.07
2023-04-23T00:15:29.972Z,11.01
2023-04-23T00:18:31.825Z,10.98
2023-04-23T00:21:33.763Z,10.99
2023-04-23T00:24:35.504Z,11.12
2023-04-23T00:27:37.267Z,11.18
2023-04-23T00:30:40.709Z,11.04
2023-04-23T00:33:42.499Z,10.79
2023-04-23T00:36:44.222Z,10.85
2023-04-23T00:39:45.989Z,10.99
2023-04-23T00:42:47.956Z,11.02
2023-04-23T00:45:51.125Z,10.94
2023-04-23T00:48:53.130Z,11.17
2023-04-23T00:51:54.848Z,11.22
2023-04-23T00:54:56.711Z,11.09
2023-04-23T00:57:58.571Z,11.10
2023-04-23T01:01:01.765Z,10.98
2023-04-23T01:04:03.907Z,10.91
2023-04-23T01:07:06.095Z,10.66
2023-04-23T01:10:09.546Z,10.47
2023-04-23T01:13:12.000Z,10.18
2023-04-23T01:16:15.151Z,10.17
2023-04-23T01:19:16.918Z,10.24
2023-04-23T01:22:21.095Z,10.29
2023-04-23T01:25:22.901Z,10.45
2023-04-23T01:28:25.021Z,10.53
2023-04-23T01:31:27.204Z,10.64
2023-04-23T01:34:30.105Z,10.71
2023-04-23T01:37:34.378Z,10.77
2023-04-23T01:40:36.556Z,10.76
2023-04-23T01:43:39.590Z,10.64
2023-04-23T01:46:41.391Z,10.51
2023-04-23T01:49:43.294Z,10.65
2023-04-23T01:52:46.495Z,10.74
2023-04-23T01:55:50.324Z,10.82
2023-04-23T01:58:52.140Z,10.82
2023-04-23T02:01:53.949Z,10.82
2023-04-23T02:04:57.741Z,10.48
2023-04-23T02:08:01.359Z,10.64
2023-04-23T02:11:03.213Z,10.69
2023-04-23T02:14:06.231Z,10.67
2023-04-23T02:17:07.973Z,10.72
2023-04-23T02:20:10.915Z,10.67
2023-04-23T02:23:14.101Z,10.69
2023-04-23T02:26:15.906Z,10.73
2023-04-23T02:29:17.740Z,10.72
2023-04-23T02:32:19.583Z,10.81
2023-04-23T02:35:21.402Z,10.73
2023-04-23T02:38:24.662Z,10.79
2023-04-23T02:41:26.385Z,10.82
2023-04-23T02:44:28.099Z,10.91
2023-04-23T02:47:29.812Z,10.93
2023-04-23T02:50:31.554Z,10.90
2023-04-23T02:53:34.669Z,10.82
2023-04-23T02:56:36.464Z,10.85
2023-04-23T02:59:38.433Z,10.90
2023-04-23T03:02:40.401Z,10.87
2023-04-23T03:05:42.294Z,10.89
2023-04-23T03:08:45.409Z,10.86
2023-04-23T03:11:47.725Z,10.84
2023-04-23T03:14:49.617Z,10.78
2023-04-23T03:17:51.390Z,10.84
2023-04-23T03:20:53.236Z,10.86
2023-04-23T03:23:56.332Z,10.91
2023-04-23T03:26:58.329Z,10.94
2023-04-23T03:30:00.163Z,10.96
2023-04-23T03:33:03.039Z,10.99
2023-04-23T03:36:05.052Z,10.96
2023-04-23T03:39:08.253Z,10.85
2023-04-23T03:42:09.966Z,10.84
2023-04-23T03:45:12.141Z,10.80
2023-04-23T03:48:13.897Z,10.73
2023-04-23T03:51:15.696Z,10.63
2023-04-23T03:54:18.925Z,10.49
2023-04-23T03:57:20.803Z,10.40
2023-04-23T04:00:22.725Z,10.10
2023-04-23T04:03:24.785Z,10.03
2023-04-23T04:06:26.667Z,10.08
2023-04-23T04:09:29.805Z,10.07
2023-04-23T04:12:31.593Z,10.06
2023-04-23T04:15:33.369Z,10.20
2023-04-23T04:18:35.134Z,10.23
2023-04-23T04:21:36.883Z,10.14
2023-04-23T04:24:40.267Z,10.17
2023-04-23T04:27:42.181Z,10.14
2023-04-23T04:30:43.943Z,10.20
2023-04-23T04:33:45.756Z,10.18
2023-04-23T04:36:47.497Z,10.25
2023-04-23T04:39:50.691Z,10.37
2023-04-23T04:42:52.446Z,10.39
2023-04-23T04:45:54.199Z,10.19
2023-04-23T04:48:55.951Z,9.82
2023-04-23T04:51:57.751Z,9.88
2023-04-23T04:55:00.848Z,9.97
2023-04-23T04:58:02.617Z,10.14
2023-04-23T05:01:04.986Z,10.19
2023-04-23T05:04:06.989Z,10.22
2023-04-23T05:07:08.948Z,10.31
2023-04-23T05:10:13.358Z,10.32
2023-04-23T05:13:15.102Z,10.24
2023-04-23T05:16:16.892Z,10.03
2023-04-23T05:19:18.596Z,10.05
2023-04-23T05:22:20.497Z,10.01
2023-04-23T05:25:23.668Z,10.01
2023-04-23T05:28:25.973Z,10.07
2023-04-23T05:31:29.312Z,10.19
2023-04-23T05:34:31.284Z,10.24
2023-04-23T05:37:33.063Z,10.43
2023-04-23T05:40:36.336Z,10.53
2023-04-23T05:43:38.154Z,10.60
2023-04-23T05:46:39.852Z,10.72
2023-04-23T05:49:41.983Z,10.83
2023-04-23T05:52:43.723Z,10.97
2023-04-23T05:55:47.013Z,11.08
2023-04-23T05:58:48.814Z,11.15
2023-04-23T06:01:50.879Z,11.23
2023-04-23T06:04:53.044Z,11.35
2023-04-23T06:07:54.955Z,11.48
2023-04-23T06:10:58.689Z,11.54
2023-04-23T06:14:00.444Z,11.64
2023-04-23T06:17:02.197Z,11.76
2023-04-23T06:20:04.782Z,11.82
2023-04-23T06:23:06.586Z,11.88
2023-04-23T06:26:09.760Z,11.96
2023-04-23T06:29:11.626Z,12.02
2023-04-23T06:32:13.380Z,12.10
2023-04-23T06:35:15.217Z,12.17
2023-04-23T06:38:16.972Z,12.27
2023-04-23T06:41:20.381Z,12.29
2023-04-23T06:44:22.103Z,12.37
2023-04-23T06:47:23.875Z,12.47
2023-04-23T06:50:25.767Z,12.79
2023-04-23T06:53:27.560Z,13.01
2023-04-23T06:56:30.638Z,13.14
2023-04-23T06:59:32.424Z,13.30
2023-04-23T07:02:34.412Z,13.30
2023-04-23T07:05:36.243Z,13.33
2023-04-23T07:08:38.178Z,13.39
2023-04-23T07:11:41.458Z,13.53
2023-04-23T07:14:43.679Z,13.61
2023-04-23T07:17:45.559Z,13.72
2023-04-23T07:20:47.374Z,13.79
2023-04-23T07:23:49.101Z,13.85
2023-04-23T07:26:52.225Z,13.94
2023-04-23T07:29:53.939Z,14.06
2023-04-23T07:32:55.862Z,14.06
2023-04-23T07:35:57.632Z,14.11
2023-04-23T07:38:59.467Z,14.11
2023-04-23T07:42:02.611Z,14.26
2023-04-23T07:45:05.408Z,14.30
2023-04-23T07:48:07.190Z,14.29
2023-04-23T07:51:09.135Z,14.29
2023-04-23T07:54:11.031Z,14.28
2023-04-23T07:57:14.114Z,14.35
2023-04-23T08:00:16.278Z,14.34
2023-04-23T08:03:18.365Z,14.43
2023-04-23T08:06:20.219Z,14.42
2023-04-23T08:09:21.980Z,14.44
2023-04-23T08:12:25.203Z,14.41
2023-04-23T08:15:26.901Z,14.40
2023-04-23T08:18:28.854Z,14.43
2023-04-23T08:21:30.972Z,14.39
2023-04-23T08:24:32.756Z,14.30
2023-04-23T08:27:35.997Z,14.38
2023-04-23T08:30:37.869Z,14.31
2023-04-23T08:33:39.682Z,14.34
2023-04-23T08:36:41.390Z,14.14
2023-04-23T08:39:43.336Z,14.18
2023-04-23T08:42:50.384Z,14.33
2023-04-23T08:45:53.335Z,14.27
2023-04-23T08:48:59.214Z,14.30
2023-04-23T08:52:15.040Z,14.27
2023-04-23T08:55:17.363Z,14.35
2023-04-23T08:58:21.581Z,14.34
2023-04-23T09:01:23.604Z,14.32
2023-04-23T09:04:25.530Z,14.18
2023-04-23T09:07:27.325Z,14.29
2023-04-23T09:10:29.067Z,14.13
2023-04-23T09:13:33.849Z,14.08
2023-04-23T09:16:36.208Z,14.10
2023-04-23T09:19:40.160Z,13.83
2023-04-23T09:22:46.744Z,13.94
2023-04-23T09:25:49.185Z,13.77
2023-04-23T09:28:52.293Z,13.69
2023-04-23T09:31:55.687Z,13.74
2023-04-23T09:34:57.588Z,13.74
2023-04-23T09:37:59.385Z,13.85
2023-04-23T09:41:20.521Z,13.86
2023-04-23T09:44:24.220Z,14.01
2023-04-23T09:47:26.035Z,14.12
2023-04-23T09:50:35.179Z,14.13
2023-04-23T09:53:41.502Z,14.05
2023-04-23T09:56:43.903Z,14.03
2023-04-23T09:59:51.552Z,13.94
2023-04-23T10:03:00.297Z,13.99
2023-04-23T10:06:02.728Z,14.03
2023-04-23T10:09:04.681Z,14.16
2023-04-23T10:12:11.405Z,14.31
2023-04-23T10:15:23.119Z,14.34
2023-04-23T10:18:24.902Z,14.40
2023-04-23T10:21:42.602Z,14.45
2023-04-23T10:24:53.718Z,14.40
2023-04-23T10:27:55.546Z,14.37
2023-04-23T10:30:59.682Z,14.42
2023-04-23T10:34:04.296Z,14.44
2023-04-23T10:37:06.403Z,14.44
2023-04-23T10:40:12.456Z,14.42
2023-04-23T10:43:14.577Z,14.49
2023-04-23T10:46:30.198Z,14.38
2023-04-23T10:49:33.637Z,14.56
2023-04-23T10:52:35.702Z,14.75
2023-04-23T10:55:37.524Z,14.64
2023-04-23T10:58:49.351Z,14.68
2023-04-23T11:01:52.915Z,14.67
2023-04-23T11:04:56.253Z,14.64
2023-04-23T11:11:10.904Z,14.89
2023-04-23T11:14:13.184Z,14.97
2023-04-23T11:17:17.727Z,14.99
2023-04-23T11:20:21.064Z,15.08
2023-04-23T11:23:30.127Z,15.19
2023-04-23T11:26:32.164Z,15.26
2023-04-23T11:29:33.915Z,15.16
2023-04-23T11:32:37.174Z,15.35
2023-04-23T11:35:40.488Z,15.50
2023-04-23T11:38:42.303Z,15.65
2023-04-23T11:41:44.536Z,15.73
2023-04-23T11:44:46.761Z,16.01
2023-04-23T11:47:51.934Z,16.04
2023-04-23T11:50:53.755Z,16.16
2023-04-23T11:54:02.042Z,16.54
2023-04-23T11:57:03.817Z,16.16
2023-04-23T12:00:15.398Z,15.97
2023-04-23T12:03:18.677Z,15.91
2023-04-23T12:06:20.527Z,15.87
2023-04-23T12:09:24.719Z,15.82
2023-04-23T12:12:33.112Z,15.78
2023-04-23T12:15:44.838Z,15.81
2023-04-23T12:18:53.919Z,15.85
2023-04-23T12:21:57.453Z,15.91
2023-04-23T12:24:59.235Z,16.00
2023-04-23T12:28:02.168Z,16.14
2023-04-23T12:31:03.941Z,16.14
2023-04-23T12:34:08.693Z,16.45
2023-04-23T12:37:10.405Z,16.62
2023-04-23T12:40:12.262Z,16.65
2023-04-23T12:43:14.020Z,16.70
2023-04-23T12:46:15.800Z,16.69
2023-04-23T12:49:18.975Z,16.60
2023-04-23T12:52:20.995Z,16.63
2023-04-23T12:55:22.828Z,16.62
2023-04-23T12:58:24.597Z,16.73
2023-04-23T13:01:26.378Z,17.09
2023-04-23T13:04:29.549Z,17.03
2023-04-23T13:07:31.467Z,16.97
2023-04-23T13:10:33.161Z,17.19
2023-04-23T13:13:34.884Z,17.28
2023-04-23T13:16:36.763Z,17.13
2023-04-23T13:19:40.783Z,17.14
2023-04-23T13:22:42.642Z,17.06
2023-04-23T13:25:44.393Z,17.01
2023-04-23T13:28:46.185Z,17.29
2023-04-23T13:31:48.003Z,17.19
2023-04-23T13:34:51.234Z,17.16
2023-04-23T13:37:53.046Z,17.10
2023-04-23T13:40:54.790Z,16.97
2023-04-23T13:43:56.617Z,16.93
2023-04-23T13:46:58.491Z,17.23
2023-04-23T13:50:01.838Z,17.26
2023-04-23T13:53:03.582Z,17.32
2023-04-23T13:56:05.885Z,17.26
2023-04-23T13:59:18.368Z,17.33
2023-04-23T14:02:21.517Z,17.41
2023-04-23T14:05:24.744Z,17.41
2023-04-23T14:08:26.476Z,17.48
2023-04-23T14:11:28.372Z,17.59
2023-04-23T14:14:30.150Z,17.50
2023-04-23T14:17:32.101Z,17.57
2023-04-23T14:20:35.274Z,17.56
2023-04-23T14:23:51.099Z,17.38
2023-04-23T14:26:52.997Z,17.31
2023-04-23T14:29:58.242Z,17.38
2023-04-23T14:33:00.026Z,17.42
2023-04-23T14:36:03.261Z,17.45
2023-04-23T14:39:05.089Z,17.42
2023-04-23T14:42:06.891Z,17.64
2023-04-23T14:45:09.460Z,17.83
2023-04-23T14:48:11.240Z,18.18
2023-04-23T14:51:14.412Z,18.11
2023-04-23T14:54:16.210Z,18.33
2023-04-23T14:57:17.995Z,18.35
2023-04-23T15:00:19.753Z,18.64
2023-04-23T15:03:21.697Z,18.83
2023-04-23T15:06:25.030Z,18.99
2023-04-23T15:09:26.818Z,18.79
2023-04-23T15:12:48.002Z,19.09
2023-04-23T15:15:51.206Z,19.23
2023-04-23T15:18:52.947Z,19.29
2023-04-23T15:21:56.516Z,19.27
2023-04-23T15:24:58.278Z,19.55
2023-04-23T15:28:00.455Z,19.63
2023-04-23T15:31:02.266Z,19.80
2023-04-23T15:34:04.057Z,19.89
2023-04-23T15:37:07.300Z,19.98
2023-04-23T15:40:11.445Z,20.06
2023-04-23T15:43:13.762Z,19.75
2023-04-23T15:46:15.591Z,19.95
2023-04-23T15:49:17.640Z,19.60
2023-04-23T15:52:20.852Z,19.65
2023-04-23T15:55:22.981Z,19.73
2023-04-23T15:58:24.848Z,19.99
2023-04-23T16:01:27.685Z,20.27
2023-04-23T16:04:30.274Z,20.41
2023-04-23T16:07:33.552Z,20.29
2023-04-23T16:10:35.367Z,20.52
2023-04-23T16:13:37.444Z,20.44
2023-04-23T16:16:39.409Z,20.24
2023-04-23T16:19:41.392Z,20.50
2023-04-23T16:22:44.967Z,21.04
2023-04-23T16:25:46.757Z,21.12
2023-04-23T16:28:52.329Z,21.21
2023-04-23T16:32:03.017Z,21.24
2023-04-23T16:35:05.539Z,21.08
2023-04-23T16:38:09.507Z,20.67
2023-04-23T16:41:11.479Z,20.30
2023-04-23T16:44:13.228Z,20.27
2023-04-23T16:47:14.975Z,20.23
2023-04-23T16:50:17.184Z,20.03
2023-04-23T16:53:20.826Z,19.97
2023-04-23T16:56:23.085Z,19.87
2023-04-23T16:59:25.251Z,19.83
2023-04-23T17:02:27.074Z,19.76
2023-04-23T17:05:32.956Z,20.10
2023-04-23T17:08:36.214Z,20.44
2023-04-23T17:11:38.427Z,20.44
2023-04-23T17:14:40.839Z,20.65
2023-04-23T17:17:43.141Z,20.76
2023-04-23T17:20:45.047Z,20.74
2023-04-23T17:23:48.446Z,20.52
2023-04-23T17:26:50.178Z,19.79
2023-04-23T17:29:52.974Z,19.49
2023-04-23T17:32:55.359Z,19.18
2023-04-23T17:35:58.171Z,19.00
2023-04-23T17:39:02.269Z,18.72
2023-04-23T17:42:05.660Z,18.65
2023-04-23T17:45:08.979Z,18.53
2023-04-23T17:48:11.154Z,18.42
2023-04-23T17:51:13.787Z,18.40
2023-04-23T17:54:21.339Z,18.19
2023-04-23T17:57:23.935Z,18.05
2023-04-23T18:00:26.882Z,18.05
2023-04-23T18:03:29.649Z,18.00
2023-04-23T18:06:33.553Z,17.91
2023-04-23T18:09:37.447Z,17.80
2023-04-23T18:12:39.859Z,17.78
2023-04-23T18:15:42.716Z,17.65
2023-04-23T18:18:45.063Z,17.53
2023-04-23T18:21:47.712Z,17.32
2023-04-23T18:24:53.721Z,17.18
2023-04-23T18:27:56.515Z,17.04
2023-04-23T18:30:58.659Z,16.96
2023-04-23T18:34:01.101Z,16.76
2023-04-23T18:37:04.655Z,16.76
2023-04-23T18:40:09.724Z,16.68
2023-04-23T18:43:12.433Z,16.48
2023-04-23T18:46:15.842Z,16.33
2023-04-23T18:49:40.023Z,16.23
2023-04-23T18:52:42.420Z,16.09
2023-04-23T18:55:46.013Z,16.02
2023-04-23T18:58:48.650Z,15.70
2023-04-23T19:01:51.040Z,15.58
2023-04-23T19:04:53.768Z,15.73
2023-04-23T19:07:55.765Z,15.53
2023-04-23T19:10:59.360Z,15.64
2023-04-23T19:14:02.720Z,15.38
2023-04-23T19:17:05.467Z,15.59
2023-04-23T19:20:09.554Z,15.52
2023-04-23T19:23:12.506Z,15.45
2023-04-23T19:26:16.977Z,15.40
2023-04-23T19:29:19.479Z,15.32
2023-04-23T19:32:21.660Z,15.36
2023-04-23T19:35:24.522Z,15.19
2023-04-23T19:38:31.149Z,15.12
2023-04-23T19:41:35.286Z,15.03
2023-04-23T19:44:37.847Z,14.98
2023-04-23T19:47:40.241Z,14.95
2023-04-23T19:50:43.073Z,15.03
2023-04-23T19:53:45.287Z,15.07
2023-04-23T19:56:48.901Z,14.93
2023-04-23T19:59:51.227Z,14.86
2023-04-23T20:02:54.944Z,14.90
2023-04-23T20:05:57.729Z,14.88
2023-04-23T20:09:00.134Z,14.88
2023-04-23T20:12:03.856Z,14.87
2023-04-23T20:15:07.164Z,14.95
2023-04-23T20:18:09.568Z,15.00
2023-04-23T20:21:11.336Z,15.00
2023-04-23T20:24:14.252Z,14.99
2023-04-23T20:27:17.396Z,14.67
2023-04-23T20:30:19.524Z,14.10
2023-04-23T20:33:21.249Z,13.84
2023-04-23T20:36:24.022Z,13.74
2023-04-23T20:39:26.048Z,13.66
2023-04-23T20:42:29.428Z,13.49
2023-04-23T20:45:31.286Z,13.39
2023-04-23T20:48:33.015Z,13.22
2023-04-23T20:51:34.904Z,13.14
2023-04-23T20:54:36.653Z,13.01
2023-04-23T20:57:39.783Z,12.91
2023-04-23T21:00:41.573Z,12.91
2023-04-23T21:03:43.485Z,12.89
2023-04-23T21:06:45.414Z,12.88
2023-04-23T21:09:47.110Z,12.83
2023-04-23T21:12:50.469Z,12.82
2023-04-23T21:15:52.661Z,12.90
2023-04-23T21:18:54.409Z,12.83
2023-04-23T21:21:56.169Z,12.77
2023-04-23T21:24:58.097Z,12.71
2023-04-23T21:28:01.685Z,12.64
2023-04-23T21:31:11.464Z,12.66
2023-04-23T21:34:14.027Z,12.43
2023-04-23T21:37:15.793Z,12.45
2023-04-23T21:40:17.776Z,12.45
2023-04-23T21:43:21.108Z,12.38
2023-04-23T21:46:23.750Z,12.27
2023-04-23T21:49:25.636Z,12.19
2023-04-23T21:52:27.481Z,12.09
2023-04-23T21:55:30.812Z,11.91
2023-04-23T21:58:34.083Z,11.75
2023-04-23T22:01:36.940Z,11.59
2023-04-23T22:04:38.762Z,11.52
2023-04-23T22:07:40.866Z,11.48
2023-04-23T22:10:42.614Z,11.35
2023-04-23T22:13:45.718Z,11.47
2023-04-23T22:16:47.543Z,11.40
2023-04-23T22:19:49.341Z,11.42
2023-04-23T22:22:51.076Z,11.29
2023-04-23T22:25:52.826Z,11.21
2023-04-23T22:28:56.108Z,11.25
2023-04-23T22:31:57.910Z,11.18
2023-04-23T22:34:59.761Z,11.09
2023-04-23T22:38:01.785Z,11.02
2023-04-23T22:41:03.607Z,10.91
2023-04-23T22:44:06.859Z,10.87
2023-04-23T22:47:08.669Z,10.85
2023-04-23T22:50:11.231Z,10.80
2023-04-23T22:53:12.947Z,10.82
2023-04-23T22:56:14.702Z,10.82
2023-04-23T22:59:17.873Z,10.73
2023-04-23T23:02:19.797Z,10.76
2023-04-23T23:05:21.605Z,10.71
2023-04-23T23:08:23.350Z,10.65
2023-04-23T23:11:25.109Z,10.43
2023-04-23T23:14:28.740Z,10.48
2023-04-23T23:17:30.511Z,10.53
2023-04-23T23:20:32.194Z,10.49
2023-04-23T23:23:33.945Z,10.49
2023-04-23T23:26:35.714Z,10.44
2023-04-23T23:29:38.810Z,10.50
2023-04-23T23:32:40.702Z,10.43
2023-04-23T23:35:43.780Z,10.38
2023-04-23T23:38:45.653Z,10.28
2023-04-23T23:41:47.474Z,10.25
2023-04-23T23:44:50.610Z,10.09
2023-04-23T23:47:52.548Z,10.19
2023-04-23T23:50:54.388Z,10.17
2023-04-23T23:53:56.237Z,10.18
2023-04-23T23:56:57.967Z,10.15
